Etusivu
METAR-TAF:

METAR-TAF

Lentoasemat :

Yellowknife, Luoteisterritoriot, Kanada

Yellowknifen lentoasema

Leveyspiiri: 62-28N, Pituuspiiri: 114-27W, korkeus merenpinnasta: 205 m

Tämänhetkinen sää

Tämä raportti tehtiin 17 minuuttia sitten, kello 05.00 UTC
Tuuli 8 kn etelästä
Lämpötila 13°C
Kosteus 51%
Ilmanpaine 1021 hPa
Näkyvyys: 24.1 km
Muutamia pilviä 15000 ft:n korkeudessa
Hajanaisia pilviä 26000 ft:n korkeudessa

METAR: CYZF 250500Z 18008KT 15SM FEW150 SCT260 13/03 A3016 RMK FU1CI3 SLP222

Aika: 23:17 (05:17 UTC)

Sääennuste

Tämä raportti tehtiin 5 tuntia ja 39 minuuttia sitten, kello 23.38 UTC
Ennuste voimassa 25. päivästä klo 00 UTC - 25. päivään klo 24 UTC
Tuuli 15 kn etelästä
Näkyvyys: 10 km
Muutamia pilviä 6000 ft:n korkeudessa
Tulossa
25. päivästä klo 06 UTC - 25. päivään klo 08 UTC
Tuuli 8 kn etelästä/kaakosta
selkeää

TAF: CYZF 242338Z 2500/2524 18015KT P6SM FEW060 BECMG 2506/2508 15008KT SKC RMK NXT FCST BY 250600Z

Säähavainnot ja -ennusteet yli 4000 lentoasemalta (METAR- ja TAF-raportit).

Käytössä olevat sääasemat on merkitty karttaan keltaisilla ja punaisilla pisteillä.

Aseta hiiri pisteen päälle nähdäksesi sääaseman nimen.

Klikkaa sitten nähdäksesi säähavainnot ja -ennusteet.

Kartan vaihtaminen: klikkaa mustalla rastilla varustettuja vihreitä pisteitä, niin voit zoomata sisään; viivalla varustettua vihreää pistettä, niin voit zoomata ulos tai vihreitä nuolia, niin pääset viereisille kartoille.


METAR-TAF: